This is the latest recevied weather packets stored in our database for station/object N3HBJ. If no packets are shown the sender has not sent any weather packets the latest 10 day(s).
| Time | Temp. | Humidity | Pressure | Rain* | Wind** | Luminosity | Snow |
|---|---|---|---|---|---|---|---|
| 1777575421 | 8.33° C | 84% | 1010.7 hPa | 0 mm | - | 304 W/m² | - |
| 1777575120 | 8.33° C | 84% | 1010.7 hPa | 0 mm | - | 320 W/m² | - |
| 1777574522 | 8.33° C | 82% | 1010.6 hPa | 0 mm | - | 74 W/m² | - |
| 1777567907 | 10° C | 81% | 1009.8 hPa | 0.51 mm | - | 281 W/m² | - |
| 1777567308 | 10° C | 83% | 1009.7 hPa | 1.02 mm | - | 503 W/m² | - |
| 1777565198 | 8.89° C | 85% | 1010.1 hPa | 1.02 mm | - | 167 W/m² | - |
| 1777564899 | 8.89° C | 84% | 1010.1 hPa | 0.76 mm | - | 162 W/m² | - |
| 1777562498 | 9.44° C | 78% | 1010 hPa | 0 mm | - | 223 W/m² | - |
| 1777562491 | 9.44° C | 79% | 1010 hPa | 0 mm | - | 165 W/m² | - |
| 1777561591 | 8.89° C | 79% | 1009.8 hPa | 0 mm | - | 483 W/m² | - |
| 1777559793 | 8.33° C | 81% | 1009.8 hPa | 0 mm | - | 218 W/m² | - |
| 1777559493 | 8.33° C | 81% | 1009.8 hPa | 0 mm | - | 243 W/m² | - |
| 1777558291 | 8.33° C | 81% | 1009.6 hPa | 0 mm | - | 274 W/m² | - |
| 1777556783 | 7.78° C | 81% | 1009.6 hPa | 0 mm | - | 123 W/m² | - |
| 1777556479 | 7.78° C | 82% | 1009.6 hPa | 0 mm | - | 125 W/m² | - |
| 1777554078 | 8.33° C | 82% | 1009.4 hPa | 0 mm | - | 83 W/m² | - |
| 1777553777 | 8.33° C | 85% | 1009.3 hPa | 0 mm | - | 202 W/m² | - |
| 1777552575 | 7.22° C | 86% | 1009.5 hPa | 0 mm | - | 72 W/m² | - |
| 1777552276 | 7.22° C | 86% | 1009.5 hPa | 0 mm | - | 51 W/m² | - |
| 1777551974 | 7.22° C | 86% | 1009.6 hPa | 0 mm | - | 72 W/m² | - |
| 1777551376 | 7.22° C | 88% | 1009.6 hPa | 0 mm | - | 53 W/m² | - |
| 1777550621 | 7.22° C | 90% | 1009.4 hPa | 0 mm | - | 35 W/m² | - |
| 1777549572 | 7.22° C | 91% | 1009.5 hPa | 0 mm | - | 11 W/m² | - |
| 1777548974 | 7.22° C | 91% | 1009.5 hPa | 0 mm | - | 16 W/m² | - |
| 1777548390 | 7.22° C | 91% | 1009.5 hPa | 0 mm | - | 14 W/m² | - |
* Rain latest hour (hover to see other rain measurements)
** Current wind speed in m/s (hover to see current wind gust speed)